Gordon, West Virginia
Current Conditions -  °F | °C
As of 7:54 AM on Friday 19 Dec 2014 (Local Time) from KCRW Reporting Station
Overcast Overcast  
Wind Chill: 28°   Ceiling: 2300
Heat Index: 28°   Visibility: 9mi
Dew Point: 22°   Wind: 3mph
Humidity: 78%   Direction: 300°WNW
Pressure: 30.25"   Gusts: NA
Location:  37.99°N, 81.7°W
Report Text: KCRW 191254Z 30003KT 9SM OVC023 M02/M06 A3025 RMK AO2 SLP254 T10221056
Loading
Personal Weather Stations






























Interactive Weather Map New forecast layout! Learn more

10-Day Weather Forecast

Advertisements
Track Severe Weather on mobile